KSPA

Spartanburg Downtown Memorial Airport

Spartanburg, South Carolina, USA
METAR KSPA 261315Z AUTO 21003KT 10SM SCT003 OVC025 21/20 A3000 RMK AO2
Observed Flight Rules
May-26 @ 13:15 UTC (24 minutes ago) Marginal Visual Flight Rules
Wind Visibility Clouds
210° at 3 knots 10 miles
  • Scattered at 300' AGL
  • Overcast at 2,500' AGL
Temperatures Readings
Current 21°C / 70°F
Dewpoint 20°C / 68°F
Humidity 94%
Altimeter 30" Hg
Pressure 1016 hPa
Elevation 303
METAR KSPA 261315Z AUTO 21003KT 10SM SCT003 OVC025 21/20 A3000 RMK AO2
Observed Flight Rules
May-26 @ 13:15 UTC
(24 minutes ago)
MVFR
Wind Visibility
210° at 3 knots 10 miles
Clouds
  • Scattered at 300' AGL
  • Overcast at 2,500' AGL
Temperature Dewpoint
21°C / 70°F 20°C / 68°F
Humidity Altimeter Pressure
94% 30" Hg 1016 hPa